Terminal Aerodrome Forecast
Issued by NWS Lake Charles, LA

Home | Current Version | Previous Version | Text Only | Print | Product List | Glossary On
Versions: 1 2 3 4 5 6 7 8 9 10 11 12 13
000
FTUS44 KLCH 291100
TAFAEX
TAF
KAEX 291137Z 2912/3012 20006KT 3SM BR OVC003
      TEMPO 2912/2914 1SM BR OVC002
     FM291500 23008KT P6SM SCT250
     FM292300 34006KT P6SM BKN050
     FM300200 01010KT P6SM BKN040=

USA.gov is the U.S. government's official web portal to all federal, state and local government web resources and services.